Time;durP1;ratioP1;P1;durP2;ratioP2;P2;SDS_P1;SDS_P2;PMS_P1;PMS_P2;Temp;Humidity;BMP_temperature;BMP_pressure;BME280_temperature;BME280_humidity;BME280_pressure;Samples;Min_cycle;Max_cycle;Signal;HPM_P1;HPM_P2
2022/11/07 00:01:21;;;;;;;3.50;0.80;;;10.10;99.90;;;;;;5012024;28;20026;-76
2022/11/07 00:03:47;;;;;;;4.50;0.70;;;10.10;99.90;;;;;;5004034;28;20411;-80
2022/11/07 00:06:12;;;;;;;3.55;0.80;;;10.10;99.90;;;;;;4987880;28;20050;-83
2022/11/07 00:08:38;;;;;;;3.38;0.80;;;10.20;99.90;;;;;;5004155;28;20029;-86
2022/11/07 00:11:05;;;;;;;4.18;0.80;;;10.10;99.90;;;;;;5008249;28;20030;-82
2022/11/07 00:13:31;;;;;;;3.47;0.80;;;10.10;99.90;;;;;;5005131;28;20041;-80
2022/11/07 00:16:03;;;;;;;5.57;0.98;;;10.10;99.90;;;;;;4985184;28;20041;-88
2022/11/07 00:18:28;;;;;;;3.88;0.70;;;10.10;99.90;;;;;;5005390;28;20026;-96
2022/11/07 00:20:54;;;;;;;2.80;0.60;;;10.10;99.90;;;;;;5004504;28;20100;-94
2022/11/07 00:23:20;;;;;;;2.83;0.50;;;10.00;99.90;;;;;;5008206;28;20028;-95
2022/11/07 00:25:45;;;;;;;2.88;0.70;;;10.10;99.90;;;;;;5004579;28;20096;-84
2022/11/07 00:28:11;;;;;;;3.05;1.00;;;10.10;99.90;;;;;;5006556;28;20044;-76
2022/11/07 00:30:37;;;;;;;2.30;0.60;;;10.20;99.90;;;;;;4989219;28;20056;-77
2022/11/07 00:33:03;;;;;;;4.45;0.90;;;10.10;99.90;;;;;;5015022;28;20069;-76
2022/11/07 00:35:28;;;;;;;3.58;0.93;;;10.20;99.90;;;;;;5011880;28;20394;-80
2022/11/07 00:37:55;;;;;;;3.42;0.80;;;10.10;99.90;;;;;;5009137;28;20116;-92
2022/11/07 00:40:20;;;;;;;4.65;0.70;;;10.10;99.90;;;;;;5004506;28;20037;-76
2022/11/07 00:42:46;;;;;;;2.58;0.60;;;10.10;99.90;;;;;;4987199;28;20049;-88
2022/11/07 00:45:12;;;;;;;4.68;0.73;;;10.20;99.90;;;;;;5006499;28;20030;-93
2022/11/07 00:47:38;;;;;;;2.42;0.50;;;10.10;99.90;;;;;;5023996;23;20140;-78
2022/11/07 00:50:05;;;;;;;3.80;0.90;;;10.20;99.90;;;;;;5051052;28;20033;-76
2022/11/07 00:52:30;;;;;;;2.85;1.02;;;10.30;99.90;;;;;;5053394;28;20048;-76
2022/11/07 00:54:56;;;;;;;2.00;0.60;;;10.30;99.90;;;;;;5019420;28;20025;-91
2022/11/07 00:57:22;;;;;;;5.18;0.70;;;10.30;99.90;;;;;;5038834;28;20045;-92
2022/11/07 00:59:47;;;;;;;2.35;0.63;;;10.30;99.90;;;;;;5050158;28;20025;-77
2022/11/07 01:02:13;;;;;;;1.95;0.60;;;10.20;99.90;;;;;;5049776;28;20443;-76
2022/11/07 01:07:22;;;;;;;4.15;0.70;;;10.20;99.90;;;;;;5050261;28;20396;-77
2022/11/07 01:09:48;;;;;;;2.30;0.70;;;10.20;99.90;;;;;;5013229;28;20116;-96
2022/11/07 01:12:14;;;;;;;3.85;0.73;;;10.20;99.90;;;;;;5050528;28;20029;-76
2022/11/07 01:14:39;;;;;;;4.38;0.88;;;10.20;99.90;;;;;;5033542;28;20021;-82
2022/11/07 01:17:05;;;;;;;2.28;0.70;;;10.20;99.90;;;;;;5050096;28;20068;-77
2022/11/07 01:19:31;;;;;;;2.35;0.57;;;10.20;99.90;;;;;;5025316;28;20037;-76
2022/11/07 01:21:56;;;;;;;4.15;0.80;;;10.20;99.90;;;;;;5020225;28;20032;-87
2022/11/07 01:24:22;;;;;;;3.08;0.50;;;10.20;99.90;;;;;;5042503;28;20024;-79
2022/11/07 01:26:47;;;;;;;4.10;0.60;;;10.20;99.90;;;;;;5049812;28;20025;-79
2022/11/07 01:29:15;;;;;;;3.10;0.50;;;10.40;99.90;;;;;;5048345;28;20358;-94
2022/11/07 01:31:40;;;;;;;3.78;0.60;;;10.50;99.90;;;;;;5031820;28;20031;-79
2022/11/07 01:34:06;;;;;;;4.57;0.60;;;10.40;99.90;;;;;;5049868;28;20397;-95
2022/11/07 01:36:32;;;;;;;3.25;0.90;;;10.50;99.90;;;;;;5049739;28;20037;-80
2022/11/07 01:38:58;;;;;;;2.55;0.60;;;10.60;99.90;;;;;;5053807;28;20036;-76
2022/11/07 01:41:28;;;;;;;4.72;0.80;;;10.60;99.90;;;;;;5048192;28;20090;-75
2022/11/07 01:44:05;;;;;;;3.22;0.50;;;10.50;99.90;;;;;;5049298;28;20029;-77
2022/11/07 01:46:36;;;;;;;3.03;0.50;;;10.50;99.90;;;;;;5027259;28;20032;-92
2022/11/07 01:49:22;;;;;;;3.65;0.47;;;10.60;99.90;;;;;;5016264;28;20478;-84
2022/11/07 01:51:56;;;;;;;4.65;0.80;;;10.60;99.90;;;;;;5028092;28;20037;-88
2022/11/07 01:54:29;;;;;;;5.40;0.70;;;10.50;99.90;;;;;;5027386;28;20033;-95
2022/11/07 01:56:59;;;;;;;2.42;0.50;;;10.50;99.90;;;;;;5028321;28;20041;-93
2022/11/07 01:59:28;;;;;;;9.40;0.70;;;10.40;99.90;;;;;;5016540;28;20497;-84
2022/11/07 02:01:54;;;;;;;2.55;0.50;;;10.40;99.90;;;;;;5028276;28;20025;-76
2022/11/07 02:04:24;;;;;;;3.28;0.50;;;10.30;99.90;;;;;;5010775;28;20083;-76
2022/11/07 02:07:01;;;;;;;2.80;0.60;;;10.40;99.90;;;;;;5026393;28;20033;-92
2022/11/07 02:09:27;;;;;;;2.72;0.50;;;10.30;99.90;;;;;;5028657;28;20251;-94
2022/11/07 02:11:53;;;;;;;3.13;0.40;;;10.20;99.90;;;;;;5027893;28;20029;-77
2022/11/07 02:14:19;;;;;;;4.03;0.60;;;10.20;99.90;;;;;;5029302;28;20459;-77
2022/11/07 02:16:45;;;;;;;2.30;0.50;;;10.30;99.90;;;;;;4994343;28;20041;-77
2022/11/07 02:19:34;;;;;;;2.72;0.63;;;10.20;99.90;;;;;;5026808;28;20473;-95
2022/11/07 02:22:25;;;;;;;3.70;0.65;;;10.20;99.90;;;;;;5028100;28;20045;-80
2022/11/07 02:24:55;;;;;;;4.78;0.70;;;10.20;99.90;;;;;;5008787;28;20030;-94
2022/11/07 02:27:23;;;;;;;2.33;0.60;;;10.20;99.90;;;;;;5010631;28;20053;-84
2022/11/07 02:29:57;;;;;;;5.25;0.60;;;10.20;99.90;;;;;;5031490;28;20084;-86
2022/11/07 02:32:23;;;;;;;3.10;0.60;;;10.20;99.90;;;;;;5028106;28;20076;-81
2022/11/07 02:34:59;;;;;;;3.38;0.60;;;10.20;99.90;;;;;;5010391;28;20037;-96
2022/11/07 02:37:30;;;;;;;3.85;0.40;;;10.20;99.90;;;;;;5004817;28;20037;-76
2022/11/07 02:39:58;;;;;;;4.93;0.82;;;10.10;99.90;;;;;;5010901;28;20120;-76
2022/11/07 02:42:25;;;;;;;3.63;0.63;;;10.20;99.90;;;;;;5029137;28;20022;-89
2022/11/07 02:44:54;;;;;;;3.13;0.60;;;10.20;99.90;;;;;;5014120;28;20183;-92
2022/11/07 02:47:20;;;;;;;2.55;0.40;;;10.20;99.90;;;;;;5031477;28;20022;-76
2022/11/07 02:49:45;;;;;;;3.42;0.50;;;10.20;99.90;;;;;;5049018;28;20420;-89
2022/11/07 02:52:11;;;;;;;4.13;0.60;;;10.30;99.90;;;;;;5053745;28;20028;-85
2022/11/07 02:54:36;;;;;;;5.15;0.80;;;10.20;99.90;;;;;;5054780;28;20127;-82
2022/11/07 02:57:02;;;;;;;3.47;0.60;;;10.20;99.90;;;;;;5012214;28;20033;-76
2022/11/07 02:59:28;;;;;;;2.60;0.50;;;10.20;99.90;;;;;;5016908;28;20388;-77
2022/11/07 03:01:53;;;;;;;4.00;0.60;;;10.10;99.90;;;;;;5033862;28;20033;-76
2022/11/07 03:04:19;;;;;;;3.20;0.60;;;10.20;99.90;;;;;;5054325;28;20021;-80
2022/11/07 03:06:45;;;;;;;4.65;1.10;;;10.20;99.90;;;;;;5052083;28;20090;-77
2022/11/07 03:09:10;;;;;;;3.95;0.40;;;10.20;99.90;;;;;;5018906;28;20109;-76
2022/11/07 03:11:36;;;;;;;4.97;0.50;;;10.20;99.90;;;;;;5055913;28;20083;-76
2022/11/07 03:14:02;;;;;;;3.03;0.70;;;10.20;99.90;;;;;;5055589;28;20029;-78
2022/11/07 03:16:27;;;;;;;4.65;0.70;;;10.10;99.90;;;;;;5052090;28;20184;-83
2022/11/07 03:18:53;;;;;;;1.90;0.85;;;10.20;99.90;;;;;;5016584;28;20439;-76
2022/11/07 03:21:19;;;;;;;3.30;0.40;;;10.10;99.90;;;;;;5032674;28;20477;-80
2022/11/07 03:23:44;;;;;;;3.92;0.47;;;10.10;99.90;;;;;;5051433;28;20017;-76
2022/11/07 03:26:10;;;;;;;2.33;0.88;;;10.20;99.90;;;;;;5012148;28;20024;-76
2022/11/07 03:28:36;;;;;;;2.22;0.45;;;10.30;99.90;;;;;;5022619;28;20029;-87
2022/11/07 03:31:03;;;;;;;2.63;0.57;;;10.30;99.90;;;;;;5034559;28;20029;-77
2022/11/07 03:33:29;;;;;;;4.13;0.47;;;10.30;99.90;;;;;;5053142;28;20032;-77
2022/11/07 03:35:55;;;;;;;5.32;0.60;;;10.30;99.90;;;;;;5034066;28;20082;-84
2022/11/07 03:38:21;;;;;;;3.00;0.50;;;10.30;99.90;;;;;;5051254;28;20017;-95
2022/11/07 03:40:47;;;;;;;2.78;0.57;;;10.30;99.90;;;;;;5053939;28;20465;-84
2022/11/07 03:43:12;;;;;;;7.70;0.60;;;10.30;99.90;;;;;;5034868;28;20474;-77
2022/11/07 03:45:38;;;;;;;1.30;0.50;;;10.40;99.90;;;;;;5052476;28;20029;-76
2022/11/07 03:48:04;;;;;;;5.38;0.93;;;10.30;99.90;;;;;;5051041;28;20049;-77
2022/11/07 03:50:30;;;;;;;3.25;0.50;;;10.40;99.90;;;;;;5054515;28;20048;-86
2022/11/07 03:52:55;;;;;;;5.15;0.70;;;10.40;99.90;;;;;;5054805;28;20021;-76
2022/11/07 03:55:21;;;;;;;3.60;0.47;;;10.40;99.90;;;;;;5054452;28;20056;-93
2022/11/07 03:57:47;;;;;;;1.92;0.47;;;10.40;99.90;;;;;;5035314;28;20072;-77
2022/11/07 04:00:14;;;;;;;4.90;0.50;;;10.30;99.90;;;;;;5051747;28;20080;-86
2022/11/07 04:02:41;;;;;;;5.45;0.52;;;10.30;99.90;;;;;;5011538;28;20028;-83
2022/11/07 04:05:07;;;;;;;4.35;0.57;;;10.30;99.90;;;;;;5028487;28;20043;-77
2022/11/07 04:07:33;;;;;;;3.10;0.60;;;10.40;99.90;;;;;;5029071;28;20033;-76
2022/11/07 04:09:59;;;;;;;4.82;0.70;;;10.30;99.90;;;;;;5024293;28;20032;-76
2022/11/07 04:17:54;;;;;;;4.45;0.60;;;10.40;99.90;;;;;;5044017;28;20136;-94
2022/11/07 04:20:20;;;;;;;2.90;0.50;;;10.30;99.90;;;;;;5032694;28;20056;-77
2022/11/07 04:22:45;;;;;;;3.42;0.60;;;10.20;99.90;;;;;;5016370;28;20032;-90
2022/11/07 04:25:11;;;;;;;3.53;0.52;;;10.20;99.90;;;;;;5022391;28;20104;-75
2022/11/07 04:27:42;;;;;;;5.80;0.60;;;10.20;99.90;;;;;;5031864;28;20025;-79
2022/11/07 04:30:17;;;;;;;5.60;0.68;;;10.20;99.90;;;;;;5047841;28;20039;-87
2022/11/07 04:32:47;;;;;;;7.13;0.85;;;10.20;99.90;;;;;;5031769;28;20029;-77
2022/11/07 04:35:13;;;;;;;9.13;0.73;;;10.20;99.90;;;;;;5039903;28;20029;-79
2022/11/07 04:37:40;;;;;;;2.05;0.50;;;10.20;99.90;;;;;;5052077;28;20033;-76
2022/11/07 04:40:07;;;;;;;4.85;0.60;;;10.20;99.90;;;;;;5028207;28;20481;-89
2022/11/07 04:42:33;;;;;;;3.47;0.60;;;10.20;99.90;;;;;;5014445;28;20060;-76
2022/11/07 04:44:58;;;;;;;3.30;0.60;;;10.30;99.90;;;;;;5038132;28;20139;-76
2022/11/07 04:47:24;;;;;;;3.88;0.80;;;10.20;99.90;;;;;;5021917;28;20121;-87
2022/11/07 04:49:50;;;;;;;4.05;1.10;;;10.20;99.90;;;;;;5049741;28;20485;-76
2022/11/07 04:52:15;;;;;;;6.07;0.70;;;10.30;99.90;;;;;;5048423;28;20066;-77
2022/11/07 04:54:41;;;;;;;8.07;0.82;;;10.30;99.90;;;;;;5023657;28;20119;-81
2022/11/07 04:57:07;;;;;;;5.70;0.88;;;10.40;99.90;;;;;;5046859;28;20449;-92
2022/11/07 04:59:32;;;;;;;4.60;1.00;;;10.40;99.90;;;;;;5050240;28;20021;-76
2022/11/07 05:01:58;;;;;;;2.58;0.32;;;10.40;99.90;;;;;;5015468;28;20068;-81
2022/11/07 05:04:24;;;;;;;4.63;0.68;;;10.40;99.90;;;;;;5031474;28;20266;-76
2022/11/07 05:06:49;;;;;;;3.38;0.40;;;10.40;99.90;;;;;;5051602;28;20032;-94
2022/11/07 05:09:16;;;;;;;4.93;0.50;;;10.50;99.90;;;;;;5031150;28;20194;-82
2022/11/07 05:11:46;;;;;;;4.80;0.65;;;10.50;99.90;;;;;;5014650;28;20035;-91
2022/11/07 05:14:12;;;;;;;4.68;0.50;;;10.40;99.90;;;;;;5028636;28;20363;-76
2022/11/07 05:16:39;;;;;;;4.38;0.50;;;10.50;99.90;;;;;;5031582;28;20132;-85
2022/11/07 05:19:04;;;;;;;5.05;0.40;;;10.50;99.90;;;;;;5047627;28;20552;-76
2022/11/07 05:21:30;;;;;;;2.47;0.40;;;10.50;99.90;;;;;;5048956;28;20120;-91
2022/11/07 05:23:56;;;;;;;1.80;0.30;;;10.50;99.90;;;;;;5015333;28;20163;-79
2022/11/07 05:26:21;;;;;;;4.05;0.47;;;10.60;99.90;;;;;;5030631;28;20032;-76
2022/11/07 05:28:47;;;;;;;5.47;0.75;;;10.60;99.90;;;;;;5015943;28;20037;-89
2022/11/07 05:31:16;;;;;;;5.22;0.50;;;10.70;99.90;;;;;;5015516;28;20033;-76
2022/11/07 05:33:43;;;;;;;3.75;0.60;;;10.70;99.90;;;;;;5030731;28;20052;-78
2022/11/07 05:36:09;;;;;;;5.45;0.50;;;10.70;99.90;;;;;;5020397;28;20512;-77
2022/11/07 05:38:35;;;;;;;6.53;0.60;;;10.70;99.90;;;;;;5030582;28;20033;-79
2022/11/07 05:41:04;;;;;;;6.40;0.65;;;10.60;99.90;;;;;;5048191;28;20071;-93
2022/11/07 05:43:29;;;;;;;6.88;0.43;;;10.70;99.90;;;;;;5047511;28;20067;-76
2022/11/07 05:46:00;;;;;;;7.68;0.57;;;10.70;99.90;;;;;;5030284;28;20061;-83
2022/11/07 05:48:25;;;;;;;;;;;10.70;99.90;;;;;;5047736;28;20047;-76
2022/11/07 05:50:51;;;;;;;5.85;0.93;;;10.80;99.90;;;;;;5027846;28;19909;-92
2022/11/07 05:53:19;;;;;;;6.75;0.50;;;10.80;99.90;;;;;;5037164;28;20408;-77
2022/11/07 05:55:45;;;;;;;9.50;0.70;;;10.90;99.90;;;;;;5047807;28;20048;-91
2022/11/07 05:58:11;;;;;;;4.10;0.50;;;10.80;99.90;;;;;;5046147;28;20490;-77
2022/11/07 06:00:37;;;;;;;4.03;0.70;;;10.80;99.90;;;;;;5031681;28;20021;-77
2022/11/07 06:03:03;;;;;;;6.88;0.60;;;10.70;99.90;;;;;;5035740;28;20067;-80
2022/11/07 06:05:29;;;;;;;5.15;0.60;;;10.80;99.90;;;;;;5027387;28;20061;-94
2022/11/07 06:07:54;;;;;;;6.88;0.70;;;10.70;99.90;;;;;;5022679;28;20032;-79
2022/11/07 06:10:21;;;;;;;8.73;0.50;;;10.80;99.90;;;;;;5030237;28;20485;-77
2022/11/07 06:12:46;;;;;;;3.80;0.40;;;10.80;99.90;;;;;;5029150;28;20086;-87
2022/11/07 06:15:12;;;;;;;6.85;0.70;;;10.70;99.90;;;;;;5029014;28;20033;-90
2022/11/07 06:17:38;;;;;;;3.72;0.40;;;10.70;99.90;;;;;;5048885;28;20037;-77
2022/11/07 06:20:04;;;;;;;4.00;0.55;;;10.70;99.90;;;;;;5038639;28;20183;-77
2022/11/07 06:22:30;;;;;;;5.97;0.90;;;10.70;99.90;;;;;;5030911;28;20148;-77
2022/11/07 06:24:56;;;;;;;5.00;0.60;;;10.70;99.90;;;;;;5021780;28;20048;-79
2022/11/07 06:27:22;;;;;;;5.68;0.55;;;10.80;99.90;;;;;;5018592;28;20025;-79
2022/11/07 06:29:47;;;;;;;6.60;0.50;;;10.80;99.90;;;;;;5037885;28;20360;-77
2022/11/07 06:32:13;;;;;;;5.78;0.50;;;10.80;99.90;;;;;;5057012;28;20106;-91
2022/11/07 06:34:38;;;;;;;6.28;0.70;;;10.90;99.90;;;;;;5051259;28;20025;-86
2022/11/07 06:37:04;;;;;;;5.45;0.45;;;10.80;99.90;;;;;;5052871;28;20033;-79
2022/11/07 06:39:30;;;;;;;7.60;0.98;;;10.80;99.90;;;;;;5032882;28;20469;-77
2022/11/07 06:41:55;;;;;;;5.18;0.40;;;10.80;99.90;;;;;;5024562;28;20071;-77
2022/11/07 06:44:21;;;;;;;5.70;0.70;;;10.80;99.90;;;;;;5036813;28;20025;-77
2022/11/07 06:46:47;;;;;;;6.85;0.50;;;10.90;99.90;;;;;;5056974;28;20029;-80
2022/11/07 06:49:14;;;;;;;4.32;0.50;;;10.90;99.90;;;;;;5023700;28;20379;-82
2022/11/07 06:51:39;;;;;;;3.92;0.40;;;10.80;99.90;;;;;;5033697;28;20404;-77
2022/11/07 06:54:05;;;;;;;6.78;0.40;;;10.80;99.90;;;;;;5042596;28;20116;-87
2022/11/07 06:56:31;;;;;;;6.35;1.10;;;10.80;99.90;;;;;;5051113;28;20029;-77
2022/11/07 06:58:56;;;;;;;7.55;0.50;;;10.80;99.90;;;;;;5048365;28;20087;-81
2022/11/07 07:01:22;;;;;;;4.35;0.50;;;10.90;99.90;;;;;;5050278;28;20107;-79
2022/11/07 07:03:48;;;;;;;4.95;0.57;;;10.90;99.90;;;;;;5050654;28;20055;-77
2022/11/07 07:06:15;;;;;;;5.97;0.60;;;10.90;99.90;;;;;;5050703;28;20029;-76
2022/11/07 07:08:41;;;;;;;3.47;0.77;;;10.90;99.90;;;;;;5032918;28;20386;-89
2022/11/07 07:11:10;;;;;;;7.65;0.65;;;11.00;99.90;;;;;;5032245;28;20485;-80
2022/11/07 07:13:37;;;;;;;5.95;0.43;;;11.00;99.90;;;;;;5049852;28;20029;-83
2022/11/07 07:16:03;;;;;;;6.47;0.73;;;11.00;99.90;;;;;;5029967;28;20094;-77
2022/11/07 07:18:29;;;;;;;3.80;0.40;;;10.90;99.90;;;;;;5017641;28;20036;-79
2022/11/07 07:21:03;;;;;;;6.43;0.60;;;11.00;99.90;;;;;;5005389;28;20041;-88
2022/11/07 07:23:29;;;;;;;5.15;0.47;;;11.10;99.90;;;;;;5008679;28;20117;-76
2022/11/07 07:25:55;;;;;;;5.50;0.40;;;11.00;99.90;;;;;;5029063;28;20104;-76
2022/11/07 07:28:20;;;;;;;6.65;0.70;;;11.10;99.90;;;;;;5028434;28;20339;-76
2022/11/07 07:30:46;;;;;;;3.58;0.77;;;11.20;99.90;;;;;;5026499;28;20418;-76
2022/11/07 07:33:12;;;;;;;3.65;0.30;;;11.20;99.90;;;;;;5025503;28;20469;-76
2022/11/07 07:35:37;;;;;;;5.85;0.50;;;11.20;99.90;;;;;;5005447;28;20041;-88
2022/11/07 07:38:03;;;;;;;5.85;0.43;;;11.20;99.90;;;;;;5033473;28;20490;-77
2022/11/07 07:40:29;;;;;;;6.30;1.08;;;11.30;99.90;;;;;;5028772;28;20036;-76
2022/11/07 07:42:54;;;;;;;7.47;0.50;;;11.40;99.90;;;;;;5009859;28;20040;-79
2022/11/07 07:45:20;;;;;;;9.00;0.90;;;11.30;99.90;;;;;;5028637;28;20343;-86
2022/11/07 07:47:46;;;;;;;5.13;0.52;;;11.40;99.90;;;;;;5026372;28;20144;-78
2022/11/07 07:50:12;;;;;;;5.20;0.70;;;11.50;99.90;;;;;;5009496;28;20099;-83
2022/11/07 07:52:37;;;;;;;7.38;0.70;;;11.50;99.90;;;;;;5028776;28;20118;-77
2022/11/07 07:55:06;;;;;;;4.13;0.40;;;11.50;99.90;;;;;;5006553;28;20064;-76
2022/11/07 07:57:37;;;;;;;2.80;0.40;;;11.50;99.90;;;;;;5031451;28;20106;-77
2022/11/07 08:00:03;;;;;;;4.38;0.50;;;11.60;99.90;;;;;;5025507;28;20029;-77
2022/11/07 08:02:37;;;;;;;7.55;0.68;;;11.70;99.90;;;;;;5027438;28;20044;-77
2022/11/07 08:05:03;;;;;;;2.25;0.20;;;11.70;99.90;;;;;;5007808;28;20352;-78
2022/11/07 08:07:29;;;;;;;5.70;0.45;;;11.70;99.90;;;;;;5030388;28;20497;-77
2022/11/07 08:09:54;;;;;;;4.03;0.40;;;11.80;99.90;;;;;;5025975;28;20044;-77
2022/11/07 08:12:20;;;;;;;4.55;0.40;;;11.80;99.90;;;;;;5006566;28;20482;-78
2022/11/07 08:14:46;;;;;;;6.32;0.70;;;11.90;99.90;;;;;;5015349;28;20137;-77
2022/11/07 08:17:12;;;;;;;5.20;0.43;;;11.90;99.90;;;;;;5002359;28;20068;-78
2022/11/07 08:19:37;;;;;;;6.20;0.70;;;12.00;99.90;;;;;;5029218;28;20039;-76
2022/11/07 08:22:03;;;;;;;3.72;0.60;;;12.00;99.90;;;;;;5012280;28;20069;-77
2022/11/07 08:24:29;;;;;;;4.28;0.60;;;12.10;99.90;;;;;;4999995;28;20025;-77
2022/11/07 08:26:54;;;;;;;5.55;0.40;;;12.10;99.90;;;;;;5008319;28;20084;-77
2022/11/07 08:29:20;;;;;;;4.70;0.73;;;12.20;99.90;;;;;;5014787;28;20494;-79
2022/11/07 08:31:49;;;;;;;4.00;0.40;;;12.20;99.90;;;;;;5007101;28;20044;-77
2022/11/07 08:34:16;;;;;;;4.53;0.43;;;12.30;99.90;;;;;;5007480;28;20033;-79
2022/11/07 08:36:42;;;;;;;3.58;0.40;;;12.30;99.90;;;;;;5010860;28;20061;-76
2022/11/07 08:39:07;;;;;;;4.40;0.30;;;12.30;99.90;;;;;;5000058;28;20039;-85
2022/11/07 08:41:33;;;;;;;6.25;0.73;;;12.30;99.90;;;;;;5009850;28;20125;-78
2022/11/07 08:43:59;;;;;;;3.88;0.50;;;12.40;99.90;;;;;;5034762;28;20021;-76
2022/11/07 08:46:24;;;;;;;5.35;0.70;;;12.50;99.90;;;;;;5044040;28;20064;-80
2022/11/07 08:48:50;;;;;;;5.20;0.40;;;12.40;99.90;;;;;;5020766;28;20057;-86
2022/11/07 08:51:16;;;;;;;2.90;0.30;;;12.40;99.90;;;;;;5008028;28;20033;-77
2022/11/07 08:53:41;;;;;;;4.25;0.40;;;12.50;99.90;;;;;;5023216;28;20041;-86
2022/11/07 08:56:09;;;;;;;5.07;0.40;;;12.40;99.90;;;;;;5027042;28;20045;-77
2022/11/07 08:58:35;;;;;;;7.28;0.50;;;12.40;99.90;;;;;;5023939;28;20102;-77
2022/11/07 09:01:06;;;;;;;4.07;0.50;;;12.50;99.90;;;;;;5000865;28;20163;-76
2022/11/07 09:03:34;;;;;;;4.75;0.50;;;12.50;99.90;;;;;;5011018;28;21018;-77
2022/11/07 09:05:59;;;;;;;6.57;0.55;;;12.50;99.90;;;;;;5009104;28;20294;-89
2022/11/07 09:08:25;;;;;;;5.35;0.43;;;12.60;99.90;;;;;;5027789;28;20265;-78
2022/11/07 09:10:51;;;;;;;4.93;0.45;;;12.70;99.90;;;;;;5007161;28;20090;-77
2022/11/07 09:13:16;;;;;;;5.40;0.40;;;12.70;99.90;;;;;;5022333;28;20036;-77
2022/11/07 09:15:42;;;;;;;5.15;0.40;;;12.70;99.90;;;;;;5014583;28;20040;-77
2022/11/07 09:18:07;;;;;;;4.72;0.57;;;12.80;99.90;;;;;;5021678;28;20097;-79
2022/11/07 09:20:33;;;;;;;4.80;0.60;;;12.80;99.90;;;;;;5025457;28;20098;-79
2022/11/07 09:22:59;;;;;;;4.47;0.50;;;12.90;99.90;;;;;;5025940;28;20378;-79
2022/11/07 09:25:25;;;;;;;6.28;0.43;;;12.90;99.90;;;;;;5026086;28;20029;-78
2022/11/07 09:27:51;;;;;;;7.40;1.00;;;13.00;99.90;;;;;;5009592;28;20033;-81
2022/11/07 09:30:18;;;;;;;5.10;0.47;;;13.00;99.90;;;;;;5006832;28;20910;-77
2022/11/07 09:32:43;;;;;;;8.30;0.50;;;13.00;99.90;;;;;;4999191;28;20062;-79
2022/11/07 09:35:09;;;;;;;3.10;0.50;;;13.10;99.90;;;;;;5011086;28;20021;-78
2022/11/07 09:37:39;;;;;;;5.80;0.40;;;13.10;99.90;;;;;;5025471;28;20119;-83
2022/11/07 09:40:12;;;;;;;8.05;0.70;;;13.20;99.90;;;;;;5026888;28;20089;-80
2022/11/07 09:42:48;;;;;;;3.95;0.40;;;13.20;99.90;;;;;;5027563;28;20095;-78
2022/11/07 09:45:13;;;;;;;7.05;0.70;;;13.20;99.90;;;;;;5009978;28;20116;-91
2022/11/07 09:47:44;;;;;;;7.32;0.50;;;13.20;99.90;;;;;;5047145;28;20431;-81
2022/11/07 09:50:35;;;;;;;4.65;0.40;;;13.20;99.90;;;;;;5028439;28;20179;-88
2022/11/07 09:53:24;;;;;;;4.45;0.63;;;13.20;99.90;;;;;;5045581;28;20044;-90
2022/11/07 09:55:59;;;;;;;7.50;0.50;;;13.30;99.90;;;;;;5030646;28;20057;-77
2022/11/07 09:58:36;;;;;;;4.53;0.50;;;13.40;99.90;;;;;;5047116;28;20497;-78
2022/11/07 10:01:04;;;;;;;4.07;0.40;;;13.50;99.90;;;;;;5029122;28;20024;-78
2022/11/07 10:03:33;;;;;;;4.03;0.40;;;13.50;99.90;;;;;;5033641;28;20104;-77
2022/11/07 10:06:10;;;;;;;4.97;0.40;;;13.70;99.90;;;;;;5031580;28;20436;-82
2022/11/07 10:08:48;;;;;;;5.90;0.55;;;13.80;99.90;;;;;;5051681;28;20120;-78
2022/11/07 10:11:41;;;;;;;4.85;0.50;;;13.80;99.90;;;;;;5042068;28;20043;-79
2022/11/07 10:14:34;;;;;;;2.88;0.40;;;13.70;99.90;;;;;;5051166;28;20021;-78
2022/11/07 10:17:15;;;;;;;6.60;0.60;;;13.80;99.90;;;;;;5049369;28;20040;-81
2022/11/07 10:19:54;;;;;;;5.88;0.55;;;13.70;99.90;;;;;;5014464;28;20397;-86
2022/11/07 10:22:52;;;;;;;5.20;0.40;;;13.70;99.90;;;;;;5011916;28;20032;-83
2022/11/07 10:25:20;;;;;;;3.83;0.30;;;13.70;99.90;;;;;;5031928;28;20057;-78
2022/11/07 10:28:07;;;;;;;6.35;0.50;;;13.70;99.90;;;;;;5031811;28;20029;-77
2022/11/07 10:30:33;;;;;;;9.63;1.25;;;13.60;99.90;;;;;;5033066;28;20342;-93
2022/11/07 10:33:24;;;;;;;6.38;0.77;;;13.60;99.90;;;;;;5049281;28;20036;-77
2022/11/07 10:35:55;;;;;;;3.92;0.45;;;13.70;99.90;;;;;;5050630;28;20036;-77
2022/11/07 10:38:25;;;;;;;6.88;0.50;;;13.80;99.90;;;;;;5050506;28;20413;-77
2022/11/07 10:40:52;;;;;;;3.47;0.57;;;13.70;99.90;;;;;;5049846;28;20029;-82
2022/11/07 10:43:56;;;;;;;6.80;0.55;;;13.70;99.90;;;;;;5033208;28;20028;-77
2022/11/07 10:46:27;;;;;;;4.38;0.52;;;13.60;99.90;;;;;;5000520;28;20512;-91
2022/11/07 10:48:55;;;;;;;4.78;0.45;;;13.70;99.90;;;;;;5032233;28;20041;-78
2022/11/07 10:51:38;;;;;;;3.75;0.40;;;13.80;99.90;;;;;;5049255;28;20064;-91
2022/11/07 10:54:05;;;;;;;7.03;0.98;;;13.80;99.90;;;;;;5027839;28;20034;-84
2022/11/07 10:56:42;;;;;;;3.22;0.40;;;13.90;99.90;;;;;;5050483;28;20029;-82
2022/11/07 10:59:13;;;;;;;3.75;0.40;;;13.90;99.90;;;;;;5033866;28;20029;-77
2022/11/07 11:01:39;;;;;;;5.50;0.40;;;14.00;99.90;;;;;;5040352;28;20401;-82
2022/11/07 11:04:05;;;;;;;4.68;0.40;;;14.00;99.90;;;;;;5032333;28;20139;-80
2022/11/07 11:06:30;;;;;;;3.30;0.40;;;13.90;99.90;;;;;;5049999;28;20090;-78
2022/11/07 11:08:57;;;;;;;6.78;0.57;;;13.90;99.90;;;;;;5015431;28;20145;-77
2022/11/07 11:11:34;;;;;;;3.50;0.47;;;13.90;99.90;;;;;;5031801;28;20074;-90
2022/11/07 11:14:12;;;;;;;5.85;0.45;;;13.80;99.90;;;;;;5046559;28;20029;-82
2022/11/07 11:16:40;;;;;;;5.93;0.40;;;13.80;99.90;;;;;;5049987;28;20144;-79
2022/11/07 11:19:21;;;;;;;4.43;0.32;;;13.80;99.90;;;;;;5049990;28;20026;-86
2022/11/07 11:21:49;;;;;;;3.67;0.45;;;13.90;99.90;;;;;;5049891;28;20536;-78
2022/11/07 11:24:30;;;;;;;7.15;0.50;;;13.80;99.90;;;;;;5028254;28;20209;-77
2022/11/07 11:27:19;;;;;;;3.50;0.52;;;13.80;99.90;;;;;;5031422;28;20436;-82
2022/11/07 11:30:06;;;;;;;3.65;0.47;;;13.80;99.90;;;;;;5029548;28;20431;-78
2022/11/07 11:32:47;;;;;;;4.57;0.40;;;13.90;99.90;;;;;;5010891;28;20082;-78
2022/11/07 11:35:35;;;;;;;3.08;0.50;;;13.90;99.90;;;;;;5031718;28;20036;-91
2022/11/07 11:38:19;;;;;;;4.13;0.40;;;13.90;99.90;;;;;;5031843;28;20029;-88
2022/11/07 11:41:03;;;;;;;4.65;0.40;;;13.90;99.90;;;;;;5048576;28;20029;-89
2022/11/07 11:43:45;;;;;;;4.50;0.70;;;13.90;99.90;;;;;;5025230;28;20029;-90
2022/11/07 11:46:35;;;;;;;5.03;0.40;;;14.00;99.90;;;;;;5050015;28;20029;-90
2022/11/07 11:49:26;;;;;;;3.47;0.47;;;13.90;99.90;;;;;;5030999;28;20485;-79
2022/11/07 11:52:00;;;;;;;6.03;0.50;;;13.90;99.90;;;;;;5030899;28;20033;-96
2022/11/07 11:54:26;;;;;;;2.03;0.40;;;13.90;99.90;;;;;;5029469;28;20323;-86
2022/11/07 11:57:07;;;;;;;4.00;0.60;;;14.00;99.90;;;;;;5029406;28;20098;-78
2022/11/07 11:59:59;;;;;;;9.15;0.50;;;14.10;99.90;;;;;;5030213;28;20060;-79
2022/11/07 12:02:47;;;;;;;6.13;0.70;;;14.10;99.90;;;;;;5049711;28;20163;-79
2022/11/07 12:05:24;;;;;;;3.75;0.40;;;14.20;99.90;;;;;;5030697;28;20029;-86
2022/11/07 12:08:16;;;;;;;4.03;0.40;;;14.30;99.90;;;;;;5048959;28;20470;-80
2022/11/07 12:11:08;;;;;;;6.03;0.45;;;14.40;99.90;;;;;;5011175;28;20067;-81
2022/11/07 12:13:55;;;;;;;3.65;0.40;;;14.40;99.90;;;;;;5011138;28;20040;-81
2022/11/07 12:16:43;;;;;;;7.22;0.82;;;14.50;99.90;;;;;;5031744;28;20040;-87
2022/11/07 12:19:40;;;;;;;5.97;0.68;;;14.40;99.90;;;;;;5012146;28;20021;-94
2022/11/07 12:22:24;;;;;;;4.78;0.50;;;14.40;99.90;;;;;;5013670;28;20517;-78
2022/11/07 12:25:07;;;;;;;7.35;0.60;;;14.40;99.90;;;;;;5047957;28;20029;-79
2022/11/07 12:27:57;;;;;;;4.93;0.40;;;14.40;99.90;;;;;;5048911;28;20053;-79
2022/11/07 12:30:30;;;;;;;6.60;0.60;;;14.50;99.90;;;;;;5038763;28;20140;-86
2022/11/07 12:33:31;;;;;;;5.55;0.40;;;14.50;99.90;;;;;;5047956;28;20009;-78
2022/11/07 12:36:44;;;;;;;1.75;0.30;;;14.60;99.90;;;;;;5047307;28;20031;-89
2022/11/07 12:39:32;;;;;;;7.43;0.40;;;14.60;99.90;;;;;;4961031;28;20035;-91
2022/11/07 12:42:05;;;;;;;3.80;0.60;;;14.80;99.90;;;;;;4949826;28;20030;-88
2022/11/07 12:44:43;;;;;;;2.40;0.30;;;14.80;99.90;;;;;;4964654;28;20115;-77
2022/11/07 12:47:38;;;;;;;3.83;0.30;;;14.70;99.90;;;;;;4949546;28;20035;-85
2022/11/07 12:50:13;;;;;;;3.45;0.50;;;14.70;99.90;;;;;;4946622;28;20574;-77
2022/11/07 12:52:54;;;;;;;4.00;0.40;;;14.70;99.90;;;;;;4964211;28;20041;-77
2022/11/07 12:55:25;;;;;;;4.03;0.55;;;14.70;99.90;;;;;;4934915;28;20030;-77
2022/11/07 12:57:53;;;;;;;2.17;0.30;;;14.70;99.90;;;;;;4965805;28;20059;-83
2022/11/07 13:00:23;;;;;;;7.68;0.50;;;14.60;99.90;;;;;;4970115;28;20147;-90
2022/11/07 13:03:19;;;;;;;6.20;0.40;;;14.60;99.90;;;;;;4965734;28;20046;-77
2022/11/07 13:05:55;;;;;;;8.98;0.50;;;14.60;99.90;;;;;;4966277;28;20081;-79
2022/11/07 13:09:01;;;;;;;5.72;0.63;;;14.70;99.90;;;;;;4950913;28;20050;-90
2022/11/07 13:11:39;;;;;;;8.43;1.13;;;14.70;99.90;;;;;;5037401;28;20024;-77